Time;durP1;ratioP1;P1;durP2;ratioP2;P2;SDS_P1;SDS_P2;PMS_P1;PMS_P2;Temp;Humidity;BMP_temperature;BMP_pressure;BME280_temperature;BME280_humidity;BME280_pressure;Samples;Min_cycle;Max_cycle;Signal;HPM_P1;HPM_P2
2021/08/10 00:01:17;;;;;;;1.20;1.10;;;15.10;98.00;;;;;;5071823;28;20526;-74
2021/08/10 00:03:46;;;;;;;1.30;1.10;;;15.10;98.00;;;;;;5072016;28;20492;-74
2021/08/10 00:06:13;;;;;;;1.47;1.10;;;15.10;98.00;;;;;;5071693;28;20456;-74
2021/08/10 00:08:40;;;;;;;1.20;1.10;;;15.10;98.00;;;;;;5071556;28;20934;-75
2021/08/10 00:11:07;;;;;;;1.20;1.00;;;15.10;98.00;;;;;;5071702;28;20998;-74
2021/08/10 00:13:34;;;;;;;1.20;1.10;;;15.20;98.00;;;;;;5071467;28;20485;-74
2021/08/10 00:16:01;;;;;;;1.20;1.00;;;15.20;98.00;;;;;;5070955;28;20449;-75
2021/08/10 00:18:31;;;;;;;1.20;1.00;;;15.20;98.00;;;;;;5070647;28;20518;-74
2021/08/10 00:21:00;;;;;;;1.20;1.07;;;15.10;98.00;;;;;;5070878;28;20828;-75
2021/08/10 00:23:27;;;;;;;1.93;1.40;;;15.30;98.00;;;;;;5070731;28;20486;-74
2021/08/10 00:25:54;;;;;;;1.20;1.10;;;15.10;98.00;;;;;;5071408;28;20908;-74
2021/08/10 00:28:21;;;;;;;1.20;1.10;;;15.20;98.00;;;;;;5071634;28;20514;-75
2021/08/10 00:30:48;;;;;;;1.20;1.00;;;15.10;98.00;;;;;;5071382;28;20531;-74
2021/08/10 00:33:15;;;;;;;1.20;1.10;;;15.00;98.00;;;;;;5071245;28;20484;-75
2021/08/10 00:35:42;;;;;;;1.20;1.03;;;15.00;98.00;;;;;;5071530;28;20448;-75
2021/08/10 00:38:11;;;;;;;1.50;1.10;;;15.10;98.00;;;;;;5071318;28;20464;-74
2021/08/10 00:40:39;;;;;;;1.40;1.17;;;15.00;98.00;;;;;;5071387;28;20464;-74
2021/08/10 00:43:32;;;;;;;1.20;1.10;;;14.90;98.00;;;;;;5053563;28;20465;-74
2021/08/10 00:46:00;;;;;;;1.30;1.10;;;14.90;98.00;;;;;;5071310;28;20477;-74
2021/08/10 00:48:27;;;;;;;1.20;1.10;;;14.80;98.00;;;;;;5071127;28;20465;-75
2021/08/10 00:50:56;;;;;;;1.20;1.10;;;14.70;98.00;;;;;;5074379;28;20525;-75
2021/08/10 00:53:25;;;;;;;1.20;1.10;;;14.70;98.00;;;;;;5075059;28;20459;-75
2021/08/10 00:55:53;;;;;;;2.03;1.67;;;14.60;98.00;;;;;;5075099;28;20487;-74
2021/08/10 00:58:21;;;;;;;1.20;1.00;;;14.50;98.00;;;;;;5075039;28;20468;-76
2021/08/10 01:00:48;;;;;;;1.87;1.23;;;14.50;98.00;;;;;;5075071;28;20489;-75
2021/08/10 01:03:15;;;;;;;2.80;1.27;;;14.40;98.00;;;;;;5074934;28;20458;-74
2021/08/10 01:05:46;;;;;;;1.20;1.10;;;14.40;98.00;;;;;;5074930;28;20873;-74
2021/08/10 01:08:25;;;;;;;1.30;1.10;;;14.40;98.00;;;;;;5074905;28;20460;-74
2021/08/10 01:11:01;;;;;;;1.20;1.00;;;14.40;98.00;;;;;;5075068;28;20513;-74
2021/08/10 01:13:35;;;;;;;1.20;1.10;;;14.60;98.00;;;;;;5075047;28;20458;-75
2021/08/10 01:16:15;;;;;;;1.20;1.03;;;14.60;98.00;;;;;;5074585;28;20453;-75
2021/08/10 01:18:48;;;;;;;1.70;1.20;;;14.80;98.00;;;;;;5075059;28;20452;-74
2021/08/10 01:21:21;;;;;;;1.53;1.20;;;14.60;98.00;;;;;;5074753;28;20496;-76
2021/08/10 01:23:54;;;;;;;1.40;1.10;;;14.60;98.00;;;;;;5075004;28;20518;-74
2021/08/10 01:26:48;;;;;;;1.40;1.10;;;14.60;98.00;;;;;;5074662;28;20967;-74
2021/08/10 01:29:20;;;;;;;1.20;1.00;;;14.60;98.00;;;;;;5074470;28;20517;-74
2021/08/10 01:31:50;;;;;;;1.20;0.97;;;14.50;98.00;;;;;;5074441;28;20464;-74
2021/08/10 01:34:25;;;;;;;1.50;1.20;;;14.40;98.00;;;;;;5056179;28;20925;-75
2021/08/10 01:37:00;;;;;;;1.30;1.20;;;14.30;98.00;;;;;;5074337;28;20840;-74
2021/08/10 01:39:30;;;;;;;1.30;1.10;;;14.40;98.00;;;;;;5074189;28;20450;-74
2021/08/10 01:41:58;;;;;;;1.40;1.20;;;14.50;98.00;;;;;;5074445;28;20506;-74
2021/08/10 01:44:27;;;;;;;1.30;1.20;;;14.40;98.00;;;;;;5074028;28;20456;-74
2021/08/10 01:46:56;;;;;;;1.20;1.00;;;14.40;98.00;;;;;;5074312;28;20539;-74
2021/08/10 01:49:25;;;;;;;1.50;1.23;;;14.40;98.00;;;;;;5074095;28;20517;-74
2021/08/10 01:51:53;;;;;;;1.40;1.10;;;14.30;98.00;;;;;;5073973;28;20497;-75
2021/08/10 01:54:21;;;;;;;1.20;1.00;;;14.20;98.00;;;;;;5074019;28;20467;-74
2021/08/10 01:56:48;;;;;;;1.30;1.20;;;14.30;98.00;;;;;;5073968;28;20453;-75
2021/08/10 01:59:18;;;;;;;2.00;1.20;;;14.20;98.00;;;;;;5073919;28;20470;-75
2021/08/10 02:01:46;;;;;;;1.93;1.20;;;14.10;98.00;;;;;;5073795;28;20463;-74
2021/08/10 02:04:19;;;;;;;1.77;1.30;;;14.00;98.00;;;;;;5073749;28;20598;-74
2021/08/10 02:06:47;;;;;;;1.20;1.00;;;14.00;98.00;;;;;;5073747;28;20541;-75
2021/08/10 02:09:17;;;;;;;1.20;1.00;;;14.00;98.00;;;;;;5073669;28;20864;-75
2021/08/10 02:11:45;;;;;;;1.37;1.13;;;14.00;98.00;;;;;;5073667;28;20466;-74
2021/08/10 02:14:15;;;;;;;2.53;1.30;;;14.10;98.00;;;;;;5073747;28;20979;-74
2021/08/10 02:16:42;;;;;;;1.20;1.03;;;14.10;98.00;;;;;;5073743;28;20458;-75
2021/08/10 02:19:09;;;;;;;1.30;1.10;;;14.10;98.00;;;;;;5073625;28;20469;-74
2021/08/10 02:21:43;;;;;;;1.40;1.10;;;14.10;98.00;;;;;;5073628;28;20985;-74
2021/08/10 02:24:18;;;;;;;2.13;1.10;;;14.10;98.00;;;;;;5073490;28;20527;-74
2021/08/10 02:26:47;;;;;;;1.20;1.00;;;14.10;98.00;;;;;;5073272;28;20544;-75
2021/08/10 02:29:17;;;;;;;2.03;1.30;;;14.10;98.00;;;;;;5073445;28;20514;-75
2021/08/10 02:31:46;;;;;;;1.87;1.30;;;14.10;98.00;;;;;;5073535;28;20494;-74
2021/08/10 02:34:15;;;;;;;1.20;1.00;;;14.10;98.00;;;;;;5073009;28;20529;-73
2021/08/10 02:36:44;;;;;;;1.20;1.20;;;14.00;98.00;;;;;;5073692;28;20498;-74
2021/08/10 02:39:12;;;;;;;1.50;1.20;;;14.10;98.00;;;;;;5073566;28;20495;-74
2021/08/10 02:41:41;;;;;;;1.30;1.20;;;14.20;98.00;;;;;;5073294;28;20510;-75
2021/08/10 02:44:11;;;;;;;2.27;1.20;;;14.20;98.00;;;;;;5073239;28;20991;-74
2021/08/10 02:46:38;;;;;;;1.20;1.00;;;14.20;98.00;;;;;;5073155;28;20839;-75
2021/08/10 02:49:08;;;;;;;1.53;1.20;;;14.10;98.00;;;;;;5072858;28;21012;-74
2021/08/10 02:51:35;;;;;;;1.80;1.30;;;14.20;98.00;;;;;;5072893;28;20463;-75
2021/08/10 02:54:04;;;;;;;1.20;1.00;;;14.20;98.00;;;;;;5072908;28;20468;-74
2021/08/10 02:56:34;;;;;;;1.20;1.03;;;14.10;98.00;;;;;;5072595;28;20455;-75
2021/08/10 02:59:08;;;;;;;1.20;1.00;;;13.90;98.00;;;;;;5072699;28;20459;-75
2021/08/10 03:01:40;;;;;;;1.30;1.20;;;13.90;98.00;;;;;;5072889;28;20456;-74
2021/08/10 03:04:08;;;;;;;1.20;1.00;;;13.80;98.00;;;;;;5072604;28;20517;-75
2021/08/10 03:06:35;;;;;;;1.20;1.17;;;13.80;98.00;;;;;;5050493;28;20488;-75
2021/08/10 03:09:03;;;;;;;1.20;1.10;;;13.60;98.00;;;;;;5072544;28;21001;-74
2021/08/10 03:11:34;;;;;;;1.40;1.20;;;13.60;98.00;;;;;;5072660;28;20536;-75
2021/08/10 03:14:03;;;;;;;1.20;1.10;;;13.60;98.00;;;;;;5071936;28;20463;-76
2021/08/10 03:16:32;;;;;;;1.20;1.10;;;13.60;98.00;;;;;;5072510;28;20452;-75
2021/08/10 03:19:02;;;;;;;1.30;1.10;;;13.60;98.00;;;;;;5072482;28;20544;-75
2021/08/10 03:21:30;;;;;;;1.90;1.20;;;13.60;98.00;;;;;;5072251;28;20952;-74
2021/08/10 03:23:58;;;;;;;1.20;1.00;;;13.70;98.00;;;;;;5072286;28;20460;-76
2021/08/10 03:26:28;;;;;;;1.20;1.10;;;13.80;98.00;;;;;;5072206;28;20521;-75
2021/08/10 03:28:55;;;;;;;1.30;1.10;;;13.80;98.00;;;;;;5054659;28;20456;-74
2021/08/10 03:31:24;;;;;;;1.20;1.00;;;13.70;98.00;;;;;;5072034;28;20468;-75
2021/08/10 03:33:51;;;;;;;1.20;1.20;;;13.80;98.00;;;;;;5072054;28;20459;-75
2021/08/10 03:36:20;;;;;;;1.23;1.10;;;13.80;98.00;;;;;;5072295;28;20482;-76
2021/08/10 03:38:48;;;;;;;1.30;1.20;;;13.90;98.00;;;;;;5072100;28;20459;-75
2021/08/10 03:41:16;;;;;;;1.80;1.30;;;13.80;98.00;;;;;;5072198;28;20465;-74
2021/08/10 03:43:45;;;;;;;1.20;1.00;;;13.80;98.00;;;;;;5072159;28;20490;-74
2021/08/10 03:46:12;;;;;;;1.20;1.00;;;13.90;98.00;;;;;;5072086;28;20482;-74
2021/08/10 03:48:43;;;;;;;1.60;1.20;;;13.90;98.00;;;;;;5072033;28;20481;-75
2021/08/10 03:51:11;;;;;;;1.30;1.10;;;13.80;98.00;;;;;;5072170;28;20941;-75
2021/08/10 03:53:40;;;;;;;1.20;1.20;;;13.80;98.00;;;;;;5072179;28;20460;-74
2021/08/10 03:56:07;;;;;;;1.20;1.00;;;13.90;98.00;;;;;;5071997;28;21093;-75
2021/08/10 03:58:37;;;;;;;1.83;1.60;;;13.70;98.00;;;;;;5071291;28;20885;-75
2021/08/10 04:01:07;;;;;;;1.80;1.20;;;13.60;98.00;;;;;;5072119;28;20526;-74
2021/08/10 04:03:36;;;;;;;2.50;1.53;;;13.60;98.00;;;;;;5071546;28;20459;-76
2021/08/10 04:06:06;;;;;;;4.07;1.30;;;13.50;98.00;;;;;;5072032;28;20478;-75
2021/08/10 04:08:34;;;;;;;1.30;1.20;;;13.40;98.00;;;;;;5053631;28;20466;-76
2021/08/10 04:11:02;;;;;;;1.30;1.00;;;13.40;98.00;;;;;;5071912;28;20457;-76
2021/08/10 04:13:31;;;;;;;1.30;1.20;;;13.60;98.00;;;;;;5071682;28;20490;-74
2021/08/10 04:16:01;;;;;;;1.40;1.23;;;13.50;98.00;;;;;;5071591;28;20958;-74
2021/08/10 04:18:30;;;;;;;1.20;1.10;;;13.50;98.00;;;;;;5071481;28;21034;-74
2021/08/10 04:20:57;;;;;;;1.40;1.23;;;13.50;98.00;;;;;;5071668;28;20876;-76
2021/08/10 04:23:24;;;;;;;1.50;1.17;;;13.50;98.00;;;;;;5071575;28;20452;-74
2021/08/10 04:25:51;;;;;;;2.07;1.20;;;13.50;98.00;;;;;;5074571;28;20951;-75
2021/08/10 04:28:18;;;;;;;1.30;1.20;;;13.50;98.00;;;;;;5075758;28;20971;-74
2021/08/10 04:30:47;;;;;;;1.43;1.13;;;13.50;98.00;;;;;;5075571;28;20491;-76
2021/08/10 04:33:14;;;;;;;1.93;1.27;;;13.60;98.00;;;;;;5075735;28;20889;-74
2021/08/10 04:35:43;;;;;;;2.60;1.10;;;13.70;98.00;;;;;;5075580;28;20494;-76
2021/08/10 04:38:11;;;;;;;1.20;1.00;;;13.80;98.00;;;;;;5075596;28;20529;-75
2021/08/10 04:40:38;;;;;;;1.20;1.00;;;13.90;98.00;;;;;;5075506;28;20491;-75
2021/08/10 04:43:05;;;;;;;1.20;1.10;;;13.90;98.00;;;;;;5075497;28;20851;-74
2021/08/10 04:45:32;;;;;;;1.60;1.20;;;14.10;98.00;;;;;;5075291;28;20924;-75
2021/08/10 04:47:59;;;;;;;1.50;1.10;;;14.00;98.00;;;;;;5075553;28;20965;-74
2021/08/10 04:50:26;;;;;;;1.67;1.30;;;14.00;98.00;;;;;;5075558;28;20509;-75
2021/08/10 04:52:54;;;;;;;1.87;1.27;;;13.90;98.00;;;;;;5075332;28;20456;-74
2021/08/10 04:55:21;;;;;;;1.20;1.10;;;13.90;98.00;;;;;;5075570;28;20447;-75
2021/08/10 04:57:48;;;;;;;1.20;1.00;;;13.90;98.00;;;;;;5075489;28;20485;-75
2021/08/10 05:00:15;;;;;;;1.40;1.20;;;14.00;98.00;;;;;;5075412;28;20513;-74
2021/08/10 05:02:42;;;;;;;1.30;1.10;;;14.10;98.00;;;;;;5075245;28;20484;-74
2021/08/10 05:05:10;;;;;;;1.20;1.00;;;14.30;98.00;;;;;;5075253;28;20467;-75
2021/08/10 05:07:37;;;;;;;1.63;1.10;;;14.30;98.00;;;;;;5075151;28;21085;-75
2021/08/10 05:10:07;;;;;;;2.53;1.33;;;14.30;98.00;;;;;;5075232;28;20955;-74
2021/08/10 05:12:36;;;;;;;1.20;1.00;;;14.40;98.00;;;;;;5075228;28;20456;-74
2021/08/10 05:15:03;;;;;;;1.43;1.30;;;14.50;98.00;;;;;;5074922;28;20470;-75
2021/08/10 05:17:30;;;;;;;1.30;1.10;;;14.50;98.00;;;;;;5075053;28;20479;-74
2021/08/10 05:19:57;;;;;;;1.30;1.10;;;14.60;98.00;;;;;;5075162;28;20463;-75
2021/08/10 05:22:25;;;;;;;1.20;1.03;;;14.60;98.00;;;;;;5057137;28;20517;-74
2021/08/10 05:24:52;;;;;;;3.00;1.13;;;14.80;98.00;;;;;;5074410;28;20460;-75
2021/08/10 05:27:20;;;;;;;1.50;1.27;;;15.00;98.00;;;;;;5074614;28;20487;-74
2021/08/10 05:29:47;;;;;;;1.60;1.10;;;15.00;98.00;;;;;;5074334;28;20460;-75
2021/08/10 05:32:14;;;;;;;1.40;1.20;;;15.00;98.00;;;;;;5074352;28;20520;-74
2021/08/10 05:34:41;;;;;;;1.30;1.10;;;15.10;98.00;;;;;;5074120;28;20503;-75
2021/08/10 05:37:08;;;;;;;1.20;1.10;;;15.10;98.00;;;;;;5073875;28;20497;-74
2021/08/10 05:39:35;;;;;;;1.20;1.00;;;15.00;98.00;;;;;;5074140;28;20515;-75
2021/08/10 05:42:02;;;;;;;1.30;1.07;;;15.20;98.00;;;;;;5074278;28;20926;-74
2021/08/10 05:44:31;;;;;;;1.30;1.10;;;15.30;98.00;;;;;;5074275;28;20494;-74
2021/08/10 05:46:58;;;;;;;1.20;1.10;;;15.40;98.00;;;;;;5074109;28;20519;-75
2021/08/10 05:49:25;;;;;;;1.50;1.40;;;15.40;98.00;;;;;;5074101;28;20521;-74
2021/08/10 05:51:52;;;;;;;1.57;1.50;;;15.20;98.00;;;;;;5074083;28;20456;-74
2021/08/10 05:54:19;;;;;;;1.63;1.10;;;15.30;98.00;;;;;;5056340;28;20549;-74
2021/08/10 05:56:48;;;;;;;1.43;1.33;;;15.30;98.00;;;;;;5056191;28;20488;-74
2021/08/10 05:59:15;;;;;;;1.30;1.10;;;15.20;98.00;;;;;;5073991;28;20487;-74
2021/08/10 06:01:44;;;;;;;1.20;1.10;;;15.30;98.00;;;;;;5073839;28;20467;-75
2021/08/10 06:04:11;;;;;;;1.20;1.00;;;15.30;98.00;;;;;;5073883;28;20457;-74
2021/08/10 06:06:38;;;;;;;1.80;1.17;;;15.40;98.00;;;;;;5073915;28;20484;-74
2021/08/10 06:09:06;;;;;;;1.57;1.17;;;15.40;98.00;;;;;;5074002;28;20488;-74
2021/08/10 06:11:33;;;;;;;2.07;1.50;;;15.40;98.00;;;;;;5073773;28;20539;-74
2021/08/10 06:14:00;;;;;;;1.20;1.10;;;15.50;98.00;;;;;;5073741;28;20491;-75
2021/08/10 06:16:27;;;;;;;1.97;1.50;;;15.60;98.00;;;;;;5073742;28;20496;-74
2021/08/10 06:18:56;;;;;;;1.50;1.37;;;15.80;98.00;;;;;;5073652;28;20459;-75
2021/08/10 06:21:23;;;;;;;3.77;1.30;;;15.90;98.00;;;;;;5073472;28;20515;-75
2021/08/10 06:23:50;;;;;;;3.87;1.30;;;15.90;98.00;;;;;;5073363;28;20939;-75
2021/08/10 06:26:17;;;;;;;1.30;1.30;;;16.00;98.00;;;;;;5055787;28;21002;-74
2021/08/10 06:28:44;;;;;;;1.20;1.07;;;16.10;98.00;;;;;;5073328;28;20464;-74
2021/08/10 06:31:11;;;;;;;1.40;1.23;;;16.20;98.00;;;;;;5075011;28;20553;-75
2021/08/10 06:33:39;;;;;;;1.20;1.10;;;16.30;98.00;;;;;;5075643;28;20514;-74
2021/08/10 06:36:10;;;;;;;1.20;1.13;;;16.30;98.00;;;;;;5073430;28;20510;-75
2021/08/10 06:38:37;;;;;;;1.20;1.00;;;16.40;98.00;;;;;;5072907;28;20492;-74
2021/08/10 06:41:04;;;;;;;1.20;1.10;;;16.50;98.00;;;;;;5073403;28;20518;-75
2021/08/10 06:43:31;;;;;;;1.20;1.17;;;16.60;98.00;;;;;;5038926;28;21021;-74
2021/08/10 06:45:58;;;;;;;1.50;1.30;;;16.40;98.00;;;;;;5072929;28;20456;-74
2021/08/10 06:48:25;;;;;;;1.40;1.40;;;16.40;98.00;;;;;;5072384;28;20488;-75
2021/08/10 06:50:52;;;;;;;2.03;1.13;;;16.60;98.00;;;;;;5072768;28;20950;-75
2021/08/10 06:53:20;;;;;;;1.30;1.20;;;16.70;98.00;;;;;;5073029;28;20456;-75
2021/08/10 06:55:48;;;;;;;1.30;1.23;;;16.80;98.00;;;;;;5072831;28;20457;-74
2021/08/10 06:58:15;;;;;;;1.53;1.23;;;16.80;98.00;;;;;;5072674;28;20456;-74
2021/08/10 07:00:42;;;;;;;1.50;1.27;;;16.80;98.00;;;;;;5072628;28;20464;-75
2021/08/10 07:03:09;;;;;;;1.50;1.40;;;16.90;98.00;;;;;;5072846;28;20515;-74
2021/08/10 07:05:37;;;;;;;1.67;1.37;;;16.90;98.00;;;;;;5072615;28;20810;-74
2021/08/10 07:08:05;;;;;;;1.30;1.10;;;16.90;98.00;;;;;;5072490;28;20981;-74
2021/08/10 07:10:33;;;;;;;1.20;1.20;;;17.10;98.00;;;;;;5054791;28;20500;-75
2021/08/10 07:13:00;;;;;;;1.50;1.20;;;17.20;98.00;;;;;;5072683;28;20457;-74
2021/08/10 07:15:27;;;;;;;1.20;1.10;;;17.40;98.00;;;;;;5072382;28;20492;-75
2021/08/10 07:17:54;;;;;;;1.60;1.30;;;17.60;98.00;;;;;;5072308;28;20993;-75
2021/08/10 07:20:21;;;;;;;1.20;1.10;;;17.70;98.00;;;;;;5072385;28;20457;-74
2021/08/10 07:22:49;;;;;;;1.20;1.07;;;17.80;98.00;;;;;;5071903;28;20488;-74
2021/08/10 07:25:18;;;;;;;1.30;1.17;;;17.70;98.00;;;;;;5071497;28;20456;-74
2021/08/10 07:27:47;;;;;;;1.20;1.10;;;17.80;98.00;;;;;;5071350;28;20484;-74
2021/08/10 07:30:14;;;;;;;1.20;1.10;;;18.00;98.00;;;;;;5071313;28;20550;-74
2021/08/10 07:32:41;;;;;;;1.60;1.20;;;18.10;98.00;;;;;;5071258;28;20525;-74
2021/08/10 07:35:09;;;;;;;1.60;1.50;;;18.20;98.00;;;;;;5071230;28;20763;-74
2021/08/10 07:37:42;;;;;;;1.70;1.43;;;18.40;98.00;;;;;;5070952;28;20863;-74
2021/08/10 07:40:11;;;;;;;2.80;1.20;;;18.50;98.00;;;;;;5071200;28;20493;-75
2021/08/10 07:42:38;;;;;;;1.83;1.23;;;18.60;98.00;;;;;;5069507;28;20536;-75
2021/08/10 07:45:08;;;;;;;1.63;1.20;;;18.70;98.00;;;;;;5071128;28;20461;-75
2021/08/10 07:47:35;;;;;;;1.57;1.23;;;18.80;98.00;;;;;;5071096;28;20476;-74
2021/08/10 07:50:02;;;;;;;1.43;1.13;;;19.00;98.00;;;;;;5071087;28;20453;-74
2021/08/10 07:52:29;;;;;;;2.40;1.60;;;19.20;98.00;;;;;;5071000;28;20534;-75
2021/08/10 07:54:56;;;;;;;1.20;1.20;;;19.30;98.00;;;;;;5071082;28;20518;-75
2021/08/10 07:57:23;;;;;;;10.20;1.70;;;19.50;98.00;;;;;;5071103;28;20476;-74
2021/08/10 07:59:50;;;;;;;1.87;1.30;;;19.60;98.00;;;;;;5070905;28;20452;-75
2021/08/10 08:02:18;;;;;;;1.97;1.30;;;19.50;98.00;;;;;;5071226;28;20536;-75
2021/08/10 08:04:45;;;;;;;1.20;1.10;;;19.60;98.00;;;;;;5071147;28;20492;-75
2021/08/10 08:07:12;;;;;;;1.20;1.20;;;19.70;98.00;;;;;;5071197;28;20583;-74
2021/08/10 08:09:39;;;;;;;1.40;1.33;;;19.80;98.00;;;;;;5053125;28;20488;-75
2021/08/10 08:12:07;;;;;;;1.50;1.40;;;20.00;98.00;;;;;;5071041;28;20456;-75
2021/08/10 08:14:34;;;;;;;1.30;1.20;;;20.20;98.00;;;;;;5071004;28;20490;-75
2021/08/10 08:17:01;;;;;;;1.40;1.20;;;20.40;98.00;;;;;;5071135;28;20457;-75
2021/08/10 08:19:30;;;;;;;2.80;1.17;;;20.50;98.00;;;;;;5070870;28;20492;-75
2021/08/10 08:21:57;;;;;;;1.30;1.20;;;20.70;98.00;;;;;;5053240;28;20965;-75
2021/08/10 08:24:23;;;;;;;1.63;1.50;;;20.70;98.00;;;;;;5070754;28;20502;-75
2021/08/10 08:26:50;;;;;;;1.60;1.17;;;20.80;98.00;;;;;;5070769;28;20476;-75
2021/08/10 08:29:17;;;;;;;1.30;1.20;;;20.80;98.00;;;;;;5070728;28;20491;-75
2021/08/10 08:31:44;;;;;;;1.70;1.20;;;20.90;98.00;;;;;;5070628;28;20499;-75
2021/08/10 08:34:20;;;;;;;1.20;1.10;;;20.90;98.00;;;;;;5070510;28;20488;-75
2021/08/10 08:36:48;;;;;;;1.30;1.10;;;21.10;98.00;;;;;;5070662;28;20464;-75
2021/08/10 08:39:18;;;;;;;1.33;1.27;;;21.20;98.00;;;;;;5070447;28;20914;-75
2021/08/10 08:41:46;;;;;;;1.30;1.17;;;21.40;98.00;;;;;;5070033;28;20453;-75
2021/08/10 08:44:16;;;;;;;1.70;1.40;;;21.50;98.00;;;;;;5070568;28;20459;-75
2021/08/10 08:46:45;;;;;;;1.70;1.30;;;21.50;98.00;;;;;;5070588;28;20457;-75
2021/08/10 08:49:14;;;;;;;1.87;1.60;;;21.50;98.00;;;;;;5070610;28;20949;-75
2021/08/10 08:51:43;;;;;;;1.43;1.20;;;21.60;98.00;;;;;;5070484;28;20538;-75
2021/08/10 08:54:13;;;;;;;1.20;1.20;;;21.60;98.00;;;;;;5070454;28;20469;-75
2021/08/10 08:56:39;;;;;;;1.20;1.10;;;21.60;98.00;;;;;;5070542;28;20814;-75
2021/08/10 08:59:07;;;;;;;1.40;1.20;;;21.70;98.00;;;;;;5069936;28;20457;-75
2021/08/10 09:01:34;;;;;;;1.30;1.20;;;21.80;98.00;;;;;;5070460;28;20922;-75
2021/08/10 09:04:02;;;;;;;1.70;1.37;;;21.80;97.30;;;;;;5070028;28;20950;-75
2021/08/10 09:06:29;;;;;;;1.70;1.30;;;21.80;98.00;;;;;;5070320;28;20559;-75
2021/08/10 09:08:57;;;;;;;1.30;1.00;;;22.00;98.00;;;;;;5070282;28;20487;-75
2021/08/10 09:11:26;;;;;;;1.40;1.20;;;22.10;98.00;;;;;;5072556;28;20460;-75
2021/08/10 09:13:57;;;;;;;2.23;1.50;;;22.20;97.40;;;;;;5073616;28;20525;-75
2021/08/10 09:16:24;;;;;;;1.20;1.10;;;22.10;98.00;;;;;;5074181;28;20802;-75
2021/08/10 09:18:52;;;;;;;1.20;1.20;;;22.10;98.00;;;;;;5073963;28;20469;-75
2021/08/10 09:21:21;;;;;;;1.20;1.10;;;22.20;98.00;;;;;;5074141;28;20516;-75
2021/08/10 09:23:50;;;;;;;1.40;1.27;;;22.40;96.20;;;;;;5073992;28;20480;-75
2021/08/10 09:26:19;;;;;;;1.37;1.20;;;22.50;97.20;;;;;;5074101;28;20460;-75
2021/08/10 09:28:48;;;;;;;1.40;1.30;;;22.50;97.50;;;;;;5074051;28;20935;-75
2021/08/10 09:31:33;;;;;;;1.70;1.70;;;22.60;96.00;;;;;;5073827;28;20602;-75
2021/08/10 09:34:02;;;;;;;1.30;1.23;;;22.60;97.20;;;;;;5073868;28;20488;-75
2021/08/10 09:36:29;;;;;;;1.30;1.13;;;22.70;96.80;;;;;;5073714;28;20520;-75
2021/08/10 09:38:58;;;;;;;2.07;1.20;;;22.70;94.40;;;;;;5073750;28;20581;-75
2021/08/10 09:41:25;;;;;;;1.30;1.20;;;22.70;97.20;;;;;;5056023;28;20453;-75
2021/08/10 09:44:10;;;;;;;1.37;1.37;;;22.80;96.70;;;;;;5073520;28;20465;-75
2021/08/10 09:46:38;;;;;;;1.50;1.30;;;22.90;95.10;;;;;;5073606;28;20456;-75
2021/08/10 09:49:09;;;;;;;1.30;1.20;;;23.00;94.30;;;;;;5073358;28;20550;-75
2021/08/10 09:51:42;;;;;;;1.93;1.40;;;23.10;95.10;;;;;;5073397;28;20569;-75
2021/08/10 09:54:11;;;;;;;1.40;1.30;;;23.10;93.40;;;;;;5073278;28;20460;-75
2021/08/10 09:56:49;;;;;;;1.50;1.30;;;23.00;94.30;;;;;;5073354;28;20449;-75
2021/08/10 09:59:18;;;;;;;1.60;1.40;;;23.00;95.20;;;;;;5073191;28;20875;-75
2021/08/10 10:01:47;;;;;;;1.27;1.20;;;23.10;94.00;;;;;;5073345;28;20919;-75
2021/08/10 10:04:22;;;;;;;8.37;3.33;;;23.10;93.40;;;;;;5073011;28;21022;-75
2021/08/10 10:06:51;;;;;;;1.83;1.30;;;23.10;92.50;;;;;;5073221;28;20464;-74
2021/08/10 10:09:18;;;;;;;1.60;1.40;;;23.20;92.30;;;;;;5055305;28;20480;-75
2021/08/10 10:11:47;;;;;;;1.30;1.10;;;23.20;91.40;;;;;;5072985;28;21088;-75
2021/08/10 10:14:15;;;;;;;1.30;1.10;;;23.30;92.40;;;;;;5072859;28;20507;-75
2021/08/10 10:16:45;;;;;;;2.03;1.50;;;23.40;91.90;;;;;;5072988;28;20498;-75
2021/08/10 10:19:14;;;;;;;1.50;1.30;;;23.60;92.90;;;;;;5073223;28;20457;-75
2021/08/10 10:21:46;;;;;;;2.70;1.40;;;23.60;93.60;;;;;;5072022;28;21270;-75
2021/08/10 10:24:13;;;;;;;1.30;1.20;;;23.60;92.20;;;;;;5072317;28;20514;-75
2021/08/10 10:26:44;;;;;;;1.70;1.30;;;23.60;89.50;;;;;;5072715;28;20526;-75
2021/08/10 10:29:13;;;;;;;1.23;1.20;;;23.50;90.40;;;;;;5072488;28;20488;-75
2021/08/10 10:31:41;;;;;;;1.80;1.63;;;23.60;92.30;;;;;;5072499;28;20525;-75
2021/08/10 10:34:12;;;;;;;1.20;1.20;;;23.50;91.40;;;;;;5072488;28;20528;-75
2021/08/10 10:36:41;;;;;;;1.20;1.20;;;23.50;90.60;;;;;;5072481;28;20540;-75
2021/08/10 10:39:10;;;;;;;1.20;1.13;;;23.50;90.80;;;;;;5072418;28;20453;-75
2021/08/10 10:41:38;;;;;;;1.70;1.30;;;23.40;91.80;;;;;;5072413;28;20540;-75
2021/08/10 10:44:07;;;;;;;1.27;1.20;;;23.40;92.90;;;;;;5072458;28;20461;-75
2021/08/10 10:46:36;;;;;;;1.70;1.37;;;23.50;92.40;;;;;;5072548;28;20886;-75
2021/08/10 10:49:05;;;;;;;1.57;1.40;;;23.60;92.40;;;;;;5072403;28;20503;-75
2021/08/10 10:51:35;;;;;;;1.30;1.20;;;23.70;90.30;;;;;;5072461;28;20461;-75
2021/08/10 10:54:28;;;;;;;1.70;1.30;;;23.70;91.40;;;;;;5072268;28;20453;-75
2021/08/10 10:56:57;;;;;;;3.50;1.40;;;23.60;90.80;;;;;;5072311;28;20460;-75
2021/08/10 10:59:33;;;;;;;2.03;1.80;;;23.50;91.70;;;;;;5072242;28;20615;-75
2021/08/10 11:02:17;;;;;;;1.80;1.50;;;23.60;94.10;;;;;;5073293;28;20482;-75
2021/08/10 11:05:22;;;;;;;1.20;1.10;;;23.70;93.10;;;;;;5071332;28;20487;-75
2021/08/10 11:07:53;;;;;;;2.03;1.30;;;23.90;91.80;;;;;;5073180;28;20837;-75
2021/08/10 11:10:37;;;;;;;1.37;1.20;;;24.10;91.40;;;;;;5072572;28;20985;-75
2021/08/10 11:13:05;;;;;;;1.30;1.20;;;24.30;92.40;;;;;;5072717;28;20539;-75
2021/08/10 11:15:57;;;;;;;1.50;1.27;;;24.60;91.40;;;;;;5054843;28;20464;-75
2021/08/10 11:18:26;;;;;;;1.50;1.40;;;24.80;90.40;;;;;;5067412;28;20943;-75
2021/08/10 11:21:15;;;;;;;1.50;1.40;;;24.80;89.50;;;;;;5072535;28;20510;-75
2021/08/10 11:23:43;;;;;;;1.60;1.50;;;24.90;89.50;;;;;;5072212;28;20487;-75
2021/08/10 11:26:37;;;;;;;1.60;1.50;;;25.00;89.10;;;;;;5072159;28;20844;-75
2021/08/10 11:29:05;;;;;;;1.70;1.60;;;24.90;89.10;;;;;;5072107;28;20919;-75
2021/08/10 11:31:35;;;;;;;1.90;1.50;;;24.80;91.00;;;;;;5072132;28;20504;-75
2021/08/10 11:34:03;;;;;;;1.87;1.40;;;24.70;90.70;;;;;;5071870;28;20457;-75
2021/08/10 11:36:30;;;;;;;1.63;1.57;;;24.70;91.00;;;;;;5072362;28;21000;-75
2021/08/10 11:39:09;;;;;;;2.00;1.67;;;24.60;90.70;;;;;;5072257;28;20506;-75
2021/08/10 11:41:39;;;;;;;1.30;1.20;;;24.50;90.10;;;;;;5072417;28;20488;-75
2021/08/10 11:44:17;;;;;;;2.40;1.37;;;24.40;92.30;;;;;;5054311;28;20540;-75
2021/08/10 11:46:45;;;;;;;1.40;1.30;;;24.50;91.30;;;;;;5071383;28;20834;-75
2021/08/10 11:49:19;;;;;;;1.30;1.30;;;24.50;91.90;;;;;;5070879;28;20531;-75
2021/08/10 11:51:47;;;;;;;2.90;1.40;;;24.50;92.50;;;;;;5053649;28;20540;-75
2021/08/10 11:54:17;;;;;;;1.43;1.30;;;24.40;92.60;;;;;;5071366;28;20506;-74
2021/08/10 11:56:46;;;;;;;1.50;1.30;;;24.50;91.70;;;;;;5071549;28;20874;-75
2021/08/10 11:59:17;;;;;;;2.27;1.40;;;24.60;93.10;;;;;;5071399;28;20451;-75
2021/08/10 12:01:44;;;;;;;1.57;1.30;;;24.70;91.00;;;;;;5071066;28;20939;-75
2021/08/10 12:04:14;;;;;;;1.83;1.70;;;24.90;92.20;;;;;;5071015;28;20543;-75
2021/08/10 12:06:42;;;;;;;1.40;1.20;;;25.10;91.60;;;;;;5071203;28;20511;-76
2021/08/10 12:09:10;;;;;;;1.60;1.50;;;25.20;90.80;;;;;;5071208;28;20593;-75
2021/08/10 12:11:38;;;;;;;1.47;1.33;;;25.40;89.80;;;;;;5071225;28;20453;-75
2021/08/10 12:14:24;;;;;;;1.60;1.37;;;25.50;87.90;;;;;;5070959;28;20821;-75
2021/08/10 12:16:59;;;;;;;2.27;1.50;;;25.50;88.60;;;;;;5069598;28;20491;-75
2021/08/10 12:19:40;;;;;;;1.30;1.30;;;25.70;86.60;;;;;;5070784;28;20456;-75
2021/08/10 12:22:09;;;;;;;1.40;1.37;;;25.80;86.30;;;;;;5052901;28;20485;-75
2021/08/10 12:24:39;;;;;;;1.27;1.20;;;25.90;86.90;;;;;;5070812;28;20492;-75
2021/08/10 12:27:08;;;;;;;1.50;1.23;;;26.10;86.80;;;;;;5070685;28;20950;-75
2021/08/10 12:29:36;;;;;;;1.40;1.20;;;26.30;86.90;;;;;;5070635;28;20485;-75
2021/08/10 12:32:04;;;;;;;1.37;1.27;;;26.30;86.20;;;;;;5070615;28;20496;-75
2021/08/10 12:34:32;;;;;;;1.97;1.50;;;26.40;86.90;;;;;;5070723;28;20997;-75
2021/08/10 12:37:00;;;;;;;2.57;1.80;;;26.50;85.20;;;;;;5070757;28;20483;-75
2021/08/10 12:39:27;;;;;;;1.30;1.30;;;26.40;85.50;;;;;;5070661;28;20473;-75
2021/08/10 12:41:58;;;;;;;1.97;1.67;;;26.40;86.10;;;;;;5070724;28;20468;-75
2021/08/10 12:44:28;;;;;;;1.70;1.37;;;26.40;85.40;;;;;;5070570;28;20519;-75
2021/08/10 12:46:56;;;;;;;1.97;1.60;;;26.40;86.40;;;;;;5073813;28;20506;-75
2021/08/10 12:49:35;;;;;;;1.50;1.50;;;26.40;84.20;;;;;;5056517;28;20487;-75
2021/08/10 12:52:04;;;;;;;2.00;1.50;;;26.30;86.40;;;;;;5074620;28;20461;-75
2021/08/10 12:54:32;;;;;;;2.33;1.50;;;26.20;85.70;;;;;;5074335;28;20549;-75
2021/08/10 12:57:01;;;;;;;1.77;1.40;;;26.20;86.10;;;;;;5074487;28;20506;-75
2021/08/10 12:59:45;;;;;;;1.40;1.30;;;26.20;86.20;;;;;;5040250;28;20457;-75